Impacts METAR Board
IDs:

KERV - Kerrville Muni, TX, US

Updated at: 1200 UTC 16 Jul 2019
Potential Impact None Slight Moderate High
Time 16/00Z 16/01Z 16/02Z 16/03Z 16/04Z 16/05Z 16/06Z 16/07Z 16/08Z 16/09Z 16/10Z 16/11Z 16/12Z
Temp92 89 84 82 79 79 79 79 76 76 74 74 76
Dewpt68 70 68 67 69 71 73 74 72 73 71 70 72
Altim29.93 29.92 29.94 29.95 29.96 29.98 29.99 30.00 30.00 30.00 30.00 30.02 30.03
VIS10 10 10 10 10 10 10 10 10 10 10 10 10
CIG-- -- -- -- -- -- -- -- 100 13 -- 10 10
CoverSCTCLRCLRCLRCLRCLRCLRCLRBKNBKNCLRBKNOVC
FltCatVFRVFRVFRVFRVFRVFRVFRVFRVFRMVFRVFRMVFRMVFR
WX--------------------------
WDir1601701600001601600150150140160
WSpd8 8 3 0 0 0 10 5 0 6 5 8 8
WGst-- -- -- -- -- -- -- -- -- -- -- -- --
Raw hourly METARs
KERV 152355Z AUTO 16008KT 10SM SCT085 SCT120 33/20 A2993 RMK AO2 T03340201 10360 20331
KERV 160055Z AUTO 17008KT 10SM CLR 32/21 A2992 RMK AO2 LTG DSNT NW T03170212
KERV 160155Z AUTO 16003KT 10SM CLR 29/20 A2994 RMK AO2 T02900200
KERV 160255Z AUTO 00000KT 10SM CLR 28/20 A2995 RMK AO2 T02750196
KERV 160355Z AUTO 00000KT 10SM CLR 26/21 A2996 RMK AO2 T02610206
KERV 160455Z AUTO 00000KT 10SM CLR 26/21 A2998 RMK AO2 T02610214
KERV 160555Z AUTO 16010KT 10SM CLR 26/23 A2999 RMK AO2 T02610229 10345 20253 403600220
KERV 160655Z AUTO 16005KT 10SM CLR 26/23 A3000 RMK AO2 T02610231
KERV 160755Z AUTO 00000KT 10SM SCT015 BKN100 25/22 A3000 RMK AO2 T02470221
KERV 160855Z AUTO 15006KT 10SM BKN013 25/23 A3000 RMK AO2 T02470225
KERV 160955Z AUTO 15005KT 10SM CLR 24/22 A3000 RMK AO2 T02350215
KERV 161055Z AUTO 14008KT 10SM BKN010 23/21 A3002 RMK AO2 T02330213
KERV 161155Z AUTO 16008KT 10SM OVC010 24/22 A3003 RMK AO2 T02430222 10261 20233